createdAt,value
2023-02-03T00:02:17.957Z,1.50
2023-02-03T00:04:45.518Z,1.70
2023-02-03T00:07:14.247Z,1.80
2023-02-03T00:09:41.820Z,1.70
2023-02-03T00:12:09.886Z,1.77
2023-02-03T00:14:38.151Z,2.00
2023-02-03T00:17:06.317Z,1.75
2023-02-03T00:19:33.731Z,1.83
2023-02-03T00:22:01.286Z,1.67
2023-02-03T00:24:28.767Z,1.60
2023-02-03T00:26:56.346Z,1.88
2023-02-03T00:29:26.124Z,1.52
2023-02-03T00:31:54.722Z,1.60
2023-02-03T00:34:22.397Z,1.70
2023-02-03T00:36:49.877Z,2.08
2023-02-03T00:41:44.860Z,1.65
2023-02-03T00:44:12.248Z,1.85
2023-02-03T00:49:07.817Z,1.50
2023-02-03T00:51:35.604Z,1.50
2023-02-03T00:54:03.055Z,1.60
2023-02-03T00:56:30.645Z,1.60
2023-02-03T00:58:58.293Z,1.40
2023-02-03T01:01:25.778Z,1.30
2023-02-03T01:06:22.989Z,1.63
2023-02-03T01:08:50.527Z,1.55
2023-02-03T01:11:27.297Z,1.30
2023-02-03T01:13:56.400Z,1.55
2023-02-03T01:16:26.483Z,2.00
2023-02-03T01:18:55.719Z,1.50
2023-02-03T01:21:26.031Z,1.60
2023-02-03T01:23:54.372Z,1.42
2023-02-03T01:26:23.968Z,1.90
2023-02-03T01:28:55.704Z,1.67
2023-02-03T01:31:29.264Z,1.55
2023-02-03T01:33:57.621Z,1.50
2023-02-03T01:36:26.718Z,1.40
2023-02-03T01:38:54.535Z,1.20
2023-02-03T01:41:29.577Z,1.33
2023-02-03T01:43:59.017Z,1.67
2023-02-03T01:46:45.040Z,1.17
2023-02-03T01:49:32.207Z,1.77
2023-02-03T01:52:00.223Z,1.02
2023-02-03T01:54:31.933Z,1.02
2023-02-03T01:57:03.209Z,1.10
2023-02-03T01:59:32.981Z,1.30
2023-02-03T02:02:02.071Z,1.33
2023-02-03T02:04:43.250Z,1.20
2023-02-03T02:07:11.573Z,1.40
2023-02-03T02:09:41.571Z,1.67
2023-02-03T02:12:11.675Z,1.77
2023-02-03T02:14:41.487Z,1.73
2023-02-03T02:17:42.369Z,1.33
2023-02-03T02:20:32.618Z,1.60
2023-02-03T02:23:24.588Z,1.67
2023-02-03T02:26:21.318Z,1.23
2023-02-03T02:29:01.375Z,1.20
2023-02-03T02:31:48.406Z,1.40
2023-02-03T02:34:33.533Z,1.40
2023-02-03T02:37:24.020Z,1.23
2023-02-03T02:39:55.032Z,1.40
2023-02-03T02:42:39.603Z,1.67
2023-02-03T02:45:17.777Z,1.08
2023-02-03T02:47:46.572Z,1.40
2023-02-03T02:50:25.528Z,1.40
2023-02-03T02:52:55.092Z,1.30
2023-02-03T02:55:28.018Z,1.63
2023-02-03T02:58:06.269Z,1.15
2023-02-03T03:00:36.590Z,1.38
2023-02-03T03:03:16.908Z,1.50
2023-02-03T03:05:54.028Z,1.00
2023-02-03T03:08:41.263Z,1.10
2023-02-03T03:11:09.136Z,1.25
2023-02-03T03:13:42.381Z,1.08
2023-02-03T03:16:12.751Z,1.08
2023-02-03T03:19:00.774Z,1.40
2023-02-03T03:21:37.359Z,0.95
2023-02-03T03:24:10.982Z,0.95
2023-02-03T03:26:54.969Z,1.30
2023-02-03T03:29:35.333Z,1.10
2023-02-03T03:32:03.409Z,1.30
2023-02-03T03:34:32.310Z,1.15
2023-02-03T03:37:33.853Z,1.30
2023-02-03T03:40:09.899Z,1.50
2023-02-03T03:42:54.801Z,1.40
2023-02-03T03:45:44.199Z,1.00
2023-02-03T03:48:22.516Z,0.82
2023-02-03T03:50:56.319Z,1.30
2023-02-03T03:53:25.919Z,1.35
2023-02-03T03:55:54.237Z,1.48
2023-02-03T03:58:28.217Z,1.15
2023-02-03T04:01:01.510Z,1.10
2023-02-03T04:03:36.230Z,1.10
2023-02-03T04:06:04.116Z,1.00
2023-02-03T04:08:31.636Z,1.08
2023-02-03T04:10:59.103Z,0.88
2023-02-03T04:15:53.989Z,1.02
2023-02-03T04:18:21.443Z,1.17
2023-02-03T04:20:49.283Z,0.65
2023-02-03T04:23:16.828Z,1.63
2023-02-03T04:25:44.345Z,0.77
2023-02-03T04:28:11.916Z,0.70
2023-02-03T04:30:39.391Z,0.80
2023-02-03T04:33:06.972Z,0.90
2023-02-03T04:35:34.340Z,0.77
2023-02-03T04:38:01.687Z,0.65
2023-02-03T04:42:56.777Z,1.05
2023-02-03T04:45:24.319Z,0.75
2023-02-03T04:47:54.473Z,1.50
2023-02-03T04:50:22.237Z,1.02
2023-02-03T04:55:17.137Z,0.85
2023-02-03T04:57:44.662Z,0.73
2023-02-03T05:00:12.809Z,0.55
2023-02-03T05:02:40.183Z,1.00
2023-02-03T05:07:34.940Z,2.13
2023-02-03T05:10:02.441Z,0.77
2023-02-03T05:14:57.214Z,0.90
2023-02-03T05:17:24.703Z,1.05
2023-02-03T05:19:52.151Z,0.98
2023-02-03T05:24:47.100Z,0.90
2023-02-03T05:27:14.517Z,0.90
2023-02-03T05:29:41.989Z,1.10
2023-02-03T05:34:36.780Z,0.80
2023-02-03T05:39:31.446Z,0.88
2023-02-03T05:44:27.924Z,1.00
2023-02-03T05:46:57.723Z,0.80
2023-02-03T05:49:25.722Z,1.08
2023-02-03T05:51:54.319Z,1.05
2023-02-03T05:54:22.347Z,1.10
2023-02-03T05:56:50.096Z,1.13
2023-02-03T05:59:17.706Z,0.82
2023-02-03T06:01:45.130Z,1.00
2023-02-03T06:06:39.874Z,0.80
2023-02-03T06:09:08.924Z,1.15
2023-02-03T06:11:37.016Z,1.20
2023-02-03T06:14:05.207Z,1.15
2023-02-03T06:16:32.673Z,0.85
2023-02-03T06:19:01.145Z,0.80
2023-02-03T06:21:28.741Z,0.82
2023-02-03T06:23:56.813Z,1.70
2023-02-03T06:26:25.530Z,1.75
2023-02-03T06:28:53.093Z,1.65
2023-02-03T06:31:20.793Z,1.50
2023-02-03T06:33:48.424Z,0.90
2023-02-03T06:36:15.870Z,1.00
2023-02-03T06:38:43.399Z,0.80
2023-02-03T06:43:38.274Z,1.17
2023-02-03T06:48:33.057Z,2.00
2023-02-03T06:53:27.966Z,1.15
2023-02-03T06:55:55.386Z,1.27
2023-02-03T06:58:22.897Z,1.30
2023-02-03T07:03:19.157Z,1.23
2023-02-03T07:05:46.509Z,1.63
2023-02-03T07:13:09.598Z,0.80
2023-02-03T07:15:37.175Z,1.38
2023-02-03T07:18:04.773Z,1.50
2023-02-03T07:20:33.088Z,1.50
2023-02-03T07:23:00.874Z,1.20
2023-02-03T07:25:28.436Z,1.50
2023-02-03T07:27:55.910Z,1.52
2023-02-03T07:32:52.233Z,2.10
2023-02-03T07:35:20.200Z,1.80
2023-02-03T07:37:47.773Z,1.50
2023-02-03T07:40:17.508Z,1.35
2023-02-03T07:42:49.091Z,1.75
2023-02-03T07:45:18.413Z,2.20
2023-02-03T07:47:45.903Z,2.25
2023-02-03T07:50:13.662Z,1.92
2023-02-03T07:52:41.238Z,1.95
2023-02-03T07:55:09.679Z,2.20
2023-02-03T07:57:37.442Z,2.50
2023-02-03T08:00:05.718Z,2.70
2023-02-03T08:02:40.109Z,2.65
2023-02-03T08:05:07.897Z,2.50
2023-02-03T08:07:36.074Z,3.13
2023-02-03T08:10:05.148Z,3.08
2023-02-03T08:12:32.647Z,2.88
2023-02-03T08:15:00.189Z,3.00
2023-02-03T08:17:27.978Z,2.65
2023-02-03T08:19:55.714Z,3.50
2023-02-03T08:22:23.180Z,3.50
2023-02-03T08:24:50.962Z,2.85
2023-02-03T08:27:21.225Z,2.55
2023-02-03T08:29:49.363Z,2.75
2023-02-03T08:32:21.889Z,2.67
2023-02-03T08:34:50.171Z,3.03
2023-02-03T08:37:20.666Z,2.40
2023-02-03T08:39:48.599Z,2.05
2023-02-03T08:42:16.778Z,1.83
2023-02-03T08:44:44.642Z,2.47
2023-02-03T08:47:12.585Z,1.90
2023-02-03T08:49:40.269Z,1.90
2023-02-03T08:52:11.083Z,2.10
2023-02-03T08:54:39.033Z,2.30
2023-02-03T08:57:07.485Z,1.85
2023-02-03T08:59:41.220Z,2.50
2023-02-03T09:02:14.351Z,1.90
2023-02-03T09:04:41.936Z,1.80
2023-02-03T09:07:09.590Z,2.70
2023-02-03T09:09:37.682Z,2.63
2023-02-03T09:12:08.066Z,2.20
2023-02-03T09:14:35.598Z,2.90
2023-02-03T09:17:05.092Z,2.80
2023-02-03T09:19:35.448Z,2.90
2023-02-03T09:22:04.966Z,2.95
2023-02-03T09:24:32.509Z,2.85
2023-02-03T09:27:01.609Z,2.92
2023-02-03T09:29:29.057Z,3.10
2023-02-03T09:31:56.553Z,2.55
2023-02-03T09:34:24.192Z,3.25
2023-02-03T09:36:51.920Z,2.92
2023-02-03T09:39:19.620Z,3.00
2023-02-03T09:42:00.999Z,3.15
2023-02-03T09:44:46.301Z,2.67
2023-02-03T09:47:22.164Z,2.80
2023-02-03T09:49:58.334Z,2.85
2023-02-03T09:52:29.439Z,4.00
2023-02-03T09:54:57.082Z,3.13
2023-02-03T09:57:31.301Z,3.42
2023-02-03T10:00:02.483Z,3.22
2023-02-03T10:03:10.495Z,3.30
2023-02-03T10:05:56.816Z,3.23
2023-02-03T10:08:54.951Z,2.50
2023-02-03T10:11:28.187Z,3.78
2023-02-03T10:14:27.644Z,2.78
2023-02-03T10:17:09.888Z,1.92
2023-02-03T10:19:51.767Z,2.10
2023-02-03T10:22:24.289Z,2.15
2023-02-03T10:25:03.663Z,2.30
2023-02-03T10:27:33.477Z,2.05
2023-02-03T10:30:06.914Z,2.30
2023-02-03T10:32:36.097Z,2.17
2023-02-03T10:35:05.938Z,1.90
2023-02-03T10:37:42.060Z,2.58
2023-02-03T10:40:14.093Z,1.97
2023-02-03T10:43:02.302Z,1.90
2023-02-03T10:45:35.140Z,1.73
2023-02-03T10:48:04.613Z,2.10
2023-02-03T10:50:32.220Z,2.10
2023-02-03T10:53:18.435Z,2.38
2023-02-03T10:55:49.010Z,2.30
2023-02-03T10:58:22.000Z,1.70
2023-02-03T11:01:04.440Z,1.90
2023-02-03T11:03:32.457Z,1.50
2023-02-03T11:06:11.775Z,1.70
2023-02-03T11:08:49.817Z,1.60
2023-02-03T11:11:26.501Z,1.40
2023-02-03T11:14:17.185Z,2.30
2023-02-03T11:16:47.394Z,1.52
2023-02-03T11:19:18.701Z,1.60
2023-02-03T11:21:52.670Z,1.60
2023-02-03T11:24:24.280Z,1.50
2023-02-03T11:26:55.742Z,1.70
2023-02-03T11:29:30.844Z,1.70
2023-02-03T11:32:02.579Z,1.88
2023-02-03T11:34:34.573Z,1.70
2023-02-03T11:37:27.103Z,1.80
2023-02-03T11:40:12.714Z,2.10
2023-02-03T11:42:43.728Z,1.83
2023-02-03T11:45:15.441Z,1.60
2023-02-03T11:47:57.369Z,1.63
2023-02-03T11:50:35.175Z,1.40
2023-02-03T11:53:21.320Z,1.38
2023-02-03T11:55:56.536Z,1.20
2023-02-03T11:58:32.982Z,1.40
2023-02-03T12:01:26.130Z,1.35
2023-02-03T12:03:53.785Z,1.10
2023-02-03T12:07:15.453Z,1.65
2023-02-03T12:09:58.106Z,1.10
2023-02-03T12:12:52.121Z,1.40
2023-02-03T12:15:40.842Z,1.35
2023-02-03T12:18:32.113Z,1.25
2023-02-03T12:21:08.360Z,1.33
2023-02-03T12:24:03.078Z,1.40
2023-02-03T12:26:41.775Z,1.10
2023-02-03T12:29:22.644Z,1.80
2023-02-03T12:32:02.609Z,1.40
2023-02-03T12:34:53.820Z,1.20
2023-02-03T12:37:30.568Z,1.00
2023-02-03T12:40:05.211Z,0.98
2023-02-03T12:42:39.637Z,1.33
2023-02-03T12:45:16.511Z,1.20
2023-02-03T12:47:47.614Z,1.05
2023-02-03T12:50:34.744Z,2.20
2023-02-03T12:53:32.213Z,2.05
2023-02-03T12:56:30.116Z,2.25
2023-02-03T12:59:06.658Z,2.33
2023-02-03T13:01:42.937Z,2.60
2023-02-03T13:04:22.570Z,2.30
2023-02-03T13:07:09.966Z,1.95
2023-02-03T13:09:57.663Z,1.90
2023-02-03T13:12:32.382Z,2.10
2023-02-03T13:15:19.419Z,2.05
2023-02-03T13:17:57.801Z,1.80
2023-02-03T13:20:31.403Z,1.88
2023-02-03T13:22:59.071Z,2.22
2023-02-03T13:25:54.235Z,2.58
2023-02-03T13:28:45.165Z,2.67
2023-02-03T13:31:18.095Z,2.60
2023-02-03T13:34:27.140Z,2.38
2023-02-03T13:37:03.736Z,1.83
2023-02-03T13:40:01.889Z,2.30
2023-02-03T13:42:33.516Z,2.33
2023-02-03T13:45:25.772Z,1.98
2023-02-03T13:47:57.524Z,1.77
2023-02-03T13:50:31.497Z,1.30
2023-02-03T13:53:09.296Z,1.23
2023-02-03T13:55:44.545Z,1.48
2023-02-03T13:58:31.444Z,1.10
2023-02-03T14:03:27.966Z,1.25
2023-02-03T14:08:27.753Z,1.55
2023-02-03T14:11:32.630Z,1.48
2023-02-03T14:14:09.741Z,1.77
2023-02-03T14:16:38.110Z,1.65
2023-02-03T14:19:09.626Z,1.73
2023-02-03T14:21:43.153Z,2.22
2023-02-03T14:24:12.633Z,2.15
2023-02-03T14:26:44.998Z,1.50
2023-02-03T14:29:35.160Z,1.77
2023-02-03T14:32:13.272Z,1.20
2023-02-03T14:34:45.864Z,1.75
2023-02-03T14:37:28.980Z,1.60
2023-02-03T14:40:33.950Z,1.73
2023-02-03T14:43:19.664Z,1.20
2023-02-03T14:46:10.363Z,1.13
2023-02-03T14:48:50.394Z,1.40
2023-02-03T14:51:45.963Z,1.60
2023-02-03T14:54:33.253Z,1.73
2023-02-03T14:57:23.436Z,1.38
2023-02-03T15:00:03.526Z,1.25
2023-02-03T15:02:33.538Z,1.50
2023-02-03T15:05:13.772Z,1.40
2023-02-03T15:07:48.371Z,1.30
2023-02-03T15:10:20.902Z,1.30
2023-02-03T15:12:51.381Z,1.42
2023-02-03T15:15:29.311Z,1.40
2023-02-03T15:18:00.000Z,1.77
2023-02-03T15:20:35.550Z,2.20
2023-02-03T15:23:03.399Z,1.70
2023-02-03T15:25:33.065Z,1.70
2023-02-03T15:28:19.486Z,1.55
2023-02-03T15:30:52.891Z,1.60
2023-02-03T15:33:22.004Z,1.48
2023-02-03T15:35:59.733Z,1.70
2023-02-03T15:38:36.806Z,1.25
2023-02-03T15:43:41.942Z,1.20
2023-02-03T15:46:18.010Z,1.27
2023-02-03T15:48:53.065Z,1.83
2023-02-03T15:51:45.547Z,1.45
2023-02-03T15:54:15.963Z,1.85
2023-02-03T15:56:56.955Z,1.60
2023-02-03T15:59:26.455Z,1.83
2023-02-03T16:01:54.562Z,2.25
2023-02-03T16:04:24.223Z,2.10
2023-02-03T16:06:54.406Z,2.22
2023-02-03T16:09:34.155Z,2.42
2023-02-03T16:12:25.977Z,2.60
2023-02-03T16:14:55.572Z,2.72
2023-02-03T16:17:37.145Z,2.85
2023-02-03T16:20:13.514Z,2.90
2023-02-03T16:22:47.421Z,2.67
2023-02-03T16:25:19.843Z,2.83
2023-02-03T16:28:15.387Z,2.50
2023-02-03T16:31:17.799Z,2.13
2023-02-03T16:34:05.879Z,1.80
2023-02-03T16:36:52.248Z,1.70
2023-02-03T16:39:38.636Z,1.77
2023-02-03T16:42:39.127Z,1.90
2023-02-03T16:45:33.465Z,1.63
2023-02-03T16:48:19.658Z,1.58
2023-02-03T16:50:58.932Z,2.00
2023-02-03T16:53:30.418Z,1.60
2023-02-03T16:56:01.279Z,1.55
2023-02-03T16:58:29.021Z,1.80
2023-02-03T17:00:59.641Z,1.55
2023-02-03T17:03:29.008Z,1.52
2023-02-03T17:05:57.509Z,1.50
2023-02-03T17:08:26.405Z,1.45
2023-02-03T17:10:54.217Z,1.75
2023-02-03T17:13:24.560Z,1.83
2023-02-03T17:15:53.044Z,1.55
2023-02-03T17:18:21.414Z,1.85
2023-02-03T17:20:48.902Z,1.90
2023-02-03T17:23:16.923Z,2.08
2023-02-03T17:25:47.123Z,1.90
2023-02-03T17:28:15.116Z,1.98
2023-02-03T17:30:42.814Z,1.95
2023-02-03T17:33:14.734Z,1.67
2023-02-03T17:35:44.138Z,2.05
2023-02-03T17:38:14.051Z,1.48
2023-02-03T17:54:33.536Z,1.90
2023-02-03T17:57:01.209Z,2.10
2023-02-03T17:59:28.774Z,2.15
2023-02-03T18:01:56.169Z,1.70
2023-02-03T18:04:23.629Z,1.90
2023-02-03T18:09:18.730Z,2.00
2023-02-03T18:11:46.622Z,2.05
2023-02-03T18:14:16.521Z,1.70
2023-02-03T18:16:44.631Z,1.80
2023-02-03T18:19:16.202Z,2.03
2023-02-03T18:21:44.699Z,1.98
2023-02-03T18:24:13.443Z,1.98
2023-02-03T18:26:52.047Z,2.17
2023-02-03T18:29:20.326Z,2.22
2023-02-03T18:31:48.389Z,2.35
2023-02-03T18:34:16.768Z,2.05
2023-02-03T18:36:45.076Z,2.40
2023-02-03T18:39:14.703Z,2.60
2023-02-03T18:41:42.565Z,2.80
2023-02-03T18:44:10.100Z,3.35
2023-02-03T18:49:09.374Z,3.78
2023-02-03T18:51:37.124Z,3.33
2023-02-03T18:54:04.707Z,2.10
2023-02-03T18:56:35.739Z,1.73
2023-02-03T18:59:10.466Z,1.50
2023-02-03T19:01:39.228Z,2.00
2023-02-03T19:04:07.176Z,2.20
2023-02-03T19:06:35.997Z,2.25
2023-02-03T19:09:05.491Z,2.25
2023-02-03T19:11:33.997Z,2.30
2023-02-03T19:14:01.541Z,1.85
2023-02-03T19:16:29.138Z,1.90
2023-02-03T19:18:56.707Z,1.60
2023-02-03T19:21:24.302Z,2.10
2023-02-03T19:23:51.902Z,2.58
2023-02-03T19:26:19.498Z,2.72
2023-02-03T19:28:47.190Z,3.63
2023-02-03T19:31:15.829Z,2.92
2023-02-03T19:33:43.549Z,2.92
2023-02-03T19:36:11.699Z,3.10
2023-02-03T19:38:39.119Z,3.70
2023-02-03T19:41:08.121Z,4.00
2023-02-03T19:43:35.603Z,3.53
2023-02-03T19:46:03.402Z,3.25
2023-02-03T19:48:30.896Z,3.38
2023-02-03T19:50:58.347Z,3.40
2023-02-03T19:55:53.421Z,2.90
2023-02-03T19:58:21.157Z,2.83
2023-02-03T20:00:48.745Z,2.92
2023-02-03T20:03:18.217Z,2.22
2023-02-03T20:05:46.825Z,2.33
2023-02-03T20:08:15.765Z,2.35
2023-02-03T20:10:45.460Z,2.67
2023-02-03T20:13:13.742Z,2.00
2023-02-03T20:15:42.077Z,2.20
2023-02-03T20:18:09.580Z,2.10
2023-02-03T20:20:37.354Z,1.60
2023-02-03T20:23:04.853Z,1.60
2023-02-03T20:25:32.518Z,1.55
2023-02-03T20:28:02.650Z,1.60
2023-02-03T20:30:30.674Z,1.60
2023-02-03T20:32:58.682Z,2.00
2023-02-03T20:35:26.578Z,1.70
2023-02-03T20:37:54.013Z,1.95
2023-02-03T20:40:23.544Z,1.60
2023-02-03T20:42:52.918Z,1.80
2023-02-03T20:45:22.854Z,2.00
2023-02-03T20:47:51.689Z,1.85
2023-02-03T20:50:25.168Z,1.90
2023-02-03T20:52:56.661Z,2.00
2023-02-03T20:55:24.171Z,1.45
2023-02-03T20:57:54.304Z,1.20
2023-02-03T21:00:25.010Z,1.40
2023-02-03T21:03:11.954Z,1.15
2023-02-03T21:08:19.778Z,1.70
2023-02-03T21:10:48.772Z,1.48
2023-02-03T21:13:29.365Z,2.08
2023-02-03T21:16:04.769Z,1.73
2023-02-03T21:18:38.778Z,1.75
2023-02-03T21:21:15.447Z,1.88
2023-02-03T21:23:47.329Z,1.88
2023-02-03T21:26:35.760Z,2.33
2023-02-03T21:29:03.409Z,1.90
2023-02-03T21:31:35.242Z,2.25
2023-02-03T21:34:04.920Z,2.20
2023-02-03T21:36:37.920Z,2.08
2023-02-03T21:39:24.968Z,2.05
2023-02-03T21:41:52.526Z,1.33
2023-02-03T21:44:32.936Z,2.05
2023-02-03T21:47:05.254Z,1.33
2023-02-03T21:49:35.754Z,1.30
2023-02-03T21:52:03.827Z,1.30
2023-02-03T21:54:34.475Z,1.50
2023-02-03T21:57:02.036Z,0.88
2023-02-03T21:59:38.723Z,1.38
2023-02-03T22:02:39.257Z,1.23
2023-02-03T22:05:15.425Z,0.80
2023-02-03T22:07:43.052Z,1.02
2023-02-03T22:10:10.427Z,0.90
2023-02-03T22:12:37.927Z,0.80
2023-02-03T22:17:32.742Z,1.00
2023-02-03T22:22:27.559Z,1.10
2023-02-03T22:24:54.930Z,1.08
2023-02-03T22:27:25.221Z,1.23
2023-02-03T22:29:56.449Z,1.40
2023-02-03T22:32:24.166Z,1.60
2023-02-03T22:34:51.665Z,1.60
2023-02-03T22:37:19.112Z,1.40
2023-02-03T22:42:14.478Z,1.25
2023-02-03T22:44:42.050Z,1.95
2023-02-03T22:47:09.459Z,1.45
2023-02-03T22:52:04.118Z,1.30
2023-02-03T22:54:31.863Z,1.05
2023-02-03T22:56:59.465Z,1.27
2023-02-03T22:59:26.943Z,1.60
2023-02-03T23:01:54.588Z,1.52
2023-02-03T23:04:23.053Z,1.65
2023-02-03T23:06:50.687Z,1.67
2023-02-03T23:09:18.437Z,1.80
2023-02-03T23:11:45.943Z,1.83
2023-02-03T23:14:13.962Z,2.00
2023-02-03T23:16:41.438Z,1.52
2023-02-03T23:21:36.043Z,1.42
2023-02-03T23:26:30.889Z,1.92
2023-02-03T23:28:58.378Z,1.92
2023-02-03T23:31:26.039Z,1.83
2023-02-03T23:34:12.048Z,2.17
2023-02-03T23:36:39.522Z,1.75
2023-02-03T23:39:07.425Z,1.67
2023-02-03T23:41:34.808Z,1.63
2023-02-03T23:46:29.552Z,1.15
2023-02-03T23:48:57.109Z,1.48
2023-02-03T23:51:24.741Z,1.27
2023-02-03T23:53:52.148Z,1.38
2023-02-03T23:56:19.723Z,1.10
2023-02-03T23:58:47.058Z,1.13
